Woensdrecht, Netherlands
Current Conditions -  °F | °C
As of 4:50 AM on Saturday 25 Oct 2014 (Local Time) from EHWO Reporting Station
Haze Haze  
Wind Chill: 55°   Ceiling: 500
Heat Index: 55°   Visibility: 3mi
Dew Point: 54°   Wind: 7mph
Humidity: 94%   Direction: 210°SSW
Pressure: 29.97"   Gusts: NA
Location:  51.43°N, 4.3°E
Report Text: EHWO 250250Z AUTO 21006KT 5000 BR SCT004 OVC005 13/12 Q1015 YLO
Loading
Personal Weather Stations






























Interactive Weather Map
Tropical Storm Tracking
New forecast layout! Learn more

10-Day Weather Forecast

Advertisements
Track Severe Weather on mobile